Time;durP1;ratioP1;P1;durP2;ratioP2;P2;SDS_P1;SDS_P2;PMS_P1;PMS_P2;Temp;Humidity;BMP_temperature;BMP_pressure;BME280_temperature;BME280_humidity;BME280_pressure;Samples;Min_cycle;Max_cycle;Signal;HPM_P1;HPM_P2
2022/11/23 00:01:21;;;;;;;16.83;11.63;;;1.00;99.90;;;;;;4993050;28;20441;-78
2022/11/23 00:03:50;;;;;;;16.65;11.45;;;1.00;99.90;;;;;;4995037;28;20045;-78
2022/11/23 00:06:16;;;;;;;15.18;10.82;;;1.00;99.90;;;;;;4996244;28;20026;-78
2022/11/23 00:08:43;;;;;;;15.77;11.25;;;1.00;99.90;;;;;;4999459;28;20034;-78
2022/11/23 00:11:09;;;;;;;15.95;11.10;;;1.00;99.90;;;;;;4995906;28;20360;-76
2022/11/23 00:13:35;;;;;;;11.80;8.90;;;1.00;99.90;;;;;;4995758;28;20030;-78
2022/11/23 00:16:07;;;;;;;16.50;10.25;;;1.00;99.90;;;;;;4994900;28;20038;-77
2022/11/23 00:18:33;;;;;;;14.15;10.18;;;1.00;99.90;;;;;;4993070;28;20498;-78
2022/11/23 00:21:04;;;;;;;16.65;10.80;;;1.10;99.90;;;;;;4994479;28;20033;-79
2022/11/23 00:23:29;;;;;;;14.07;8.63;;;1.10;99.90;;;;;;4993985;28;20403;-79
2022/11/23 00:25:55;;;;;;;18.88;11.07;;;1.00;99.90;;;;;;4993341;28;20139;-79
2022/11/23 00:28:21;;;;;;;14.35;10.10;;;1.00;99.90;;;;;;4993972;28;20064;-78
2022/11/23 00:30:50;;;;;;;13.48;10.85;;;1.00;99.90;;;;;;4994780;28;20529;-78
2022/11/23 00:33:17;;;;;;;16.45;10.27;;;1.00;99.90;;;;;;4994998;28;20038;-78
2022/11/23 00:35:43;;;;;;;14.67;9.93;;;1.10;99.90;;;;;;4992999;28;20084;-80
2022/11/23 00:38:09;;;;;;;16.50;10.95;;;1.10;99.90;;;;;;4992981;28;20468;-79
2022/11/23 00:40:34;;;;;;;15.30;10.27;;;1.10;99.90;;;;;;4993661;28;20022;-79
2022/11/23 00:43:00;;;;;;;15.65;9.90;;;1.10;99.90;;;;;;4993615;28;20022;-80
2022/11/23 00:45:26;;;;;;;16.65;10.88;;;1.10;99.90;;;;;;4993659;28;20032;-80
2022/11/23 00:47:52;;;;;;;15.63;10.52;;;1.00;99.90;;;;;;4993478;28;20066;-80
2022/11/23 00:50:18;;;;;;;16.45;11.13;;;1.00;99.90;;;;;;4993512;28;20065;-79
2022/11/23 00:52:43;;;;;;;15.40;10.93;;;1.00;99.90;;;;;;4994139;28;20018;-80
2022/11/23 00:55:09;;;;;;;19.33;11.35;;;1.00;99.90;;;;;;4994223;28;20113;-80
2022/11/23 00:57:35;;;;;;;15.60;10.80;;;1.00;99.90;;;;;;4992143;28;20472;-79
2022/11/23 01:00:01;;;;;;;15.50;9.60;;;1.00;99.90;;;;;;4992524;28;20027;-80
2022/11/23 01:02:27;;;;;;;16.42;10.90;;;1.00;99.90;;;;;;4993609;28;20031;-77
2022/11/23 01:04:56;;;;;;;18.98;10.38;;;1.00;99.90;;;;;;5000442;28;20018;-81
2022/11/23 01:07:22;;;;;;;13.20;8.63;;;1.00;99.90;;;;;;5007596;28;20045;-78
2022/11/23 01:09:48;;;;;;;18.05;10.75;;;1.00;99.90;;;;;;4994257;28;20098;-79
2022/11/23 01:12:14;;;;;;;17.40;9.55;;;1.00;99.90;;;;;;4993364;28;20415;-79
2022/11/23 01:14:40;;;;;;;10.30;7.38;;;1.00;99.90;;;;;;4992159;28;20507;-80
2022/11/23 01:17:06;;;;;;;11.88;8.05;;;1.00;99.90;;;;;;4992142;28;20499;-80
2022/11/23 01:19:31;;;;;;;12.57;9.07;;;1.00;99.90;;;;;;4993329;28;20073;-81
2022/11/23 01:21:57;;;;;;;12.27;7.75;;;1.00;99.90;;;;;;4993379;28;20022;-80
2022/11/23 01:24:23;;;;;;;10.88;7.38;;;1.00;99.90;;;;;;4992913;28;20062;-80
2022/11/23 01:26:53;;;;;;;11.80;6.72;;;1.00;99.90;;;;;;4993851;28;20125;-79
2022/11/23 01:29:20;;;;;;;8.50;6.47;;;1.00;99.90;;;;;;4997521;28;20373;-79
2022/11/23 01:31:47;;;;;;;10.40;6.88;;;1.10;99.90;;;;;;4991761;28;20480;-79
2022/11/23 01:34:13;;;;;;;8.68;5.93;;;1.00;99.90;;;;;;4991961;28;20082;-80
2022/11/23 01:36:39;;;;;;;9.02;6.32;;;1.00;99.90;;;;;;4993392;28;20456;-80
2022/11/23 01:39:06;;;;;;;8.43;5.78;;;1.00;99.90;;;;;;4992022;28;20034;-78
2022/11/23 01:41:40;;;;;;;8.77;5.72;;;1.00;99.90;;;;;;4992868;28;20037;-76
2022/11/23 01:44:27;;;;;;;13.35;6.85;;;1.10;99.90;;;;;;4993609;28;20023;-78
2022/11/23 01:46:54;;;;;;;8.15;5.00;;;1.10;99.90;;;;;;4992800;28;20023;-79
2022/11/23 01:49:21;;;;;;;9.95;6.18;;;1.10;99.90;;;;;;4993032;28;20092;-78
2022/11/23 01:51:50;;;;;;;8.02;5.82;;;1.10;99.90;;;;;;4992519;28;20100;-78
2022/11/23 01:54:33;;;;;;;8.13;6.35;;;1.10;99.90;;;;;;4993127;28;20037;-79
2022/11/23 01:57:15;;;;;;;13.30;6.25;;;1.10;99.90;;;;;;4998047;28;20076;-78
2022/11/23 01:59:41;;;;;;;9.32;5.28;;;1.10;99.90;;;;;;5007650;28;20030;-78
2022/11/23 02:02:07;;;;;;;10.52;5.65;;;1.10;99.90;;;;;;5001766;28;20019;-79
2022/11/23 02:04:38;;;;;;;6.07;5.20;;;1.10;99.90;;;;;;5000455;28;20085;-77
2022/11/23 02:07:04;;;;;;;8.02;4.90;;;1.10;99.90;;;;;;4999423;28;20045;-78
2022/11/23 02:09:31;;;;;;;9.55;4.95;;;1.10;99.90;;;;;;4999673;28;20025;-78
2022/11/23 02:11:58;;;;;;;11.77;6.32;;;1.10;99.90;;;;;;4997993;28;20030;-78
2022/11/23 02:14:24;;;;;;;8.13;5.85;;;1.10;99.90;;;;;;4999113;28;20036;-78
2022/11/23 02:16:50;;;;;;;11.07;5.38;;;1.10;99.90;;;;;;4999070;28;20093;-77
2022/11/23 02:19:30;;;;;;;11.75;6.05;;;1.10;99.90;;;;;;4998766;28;20546;-79
2022/11/23 02:21:56;;;;;;;8.65;6.13;;;1.10;99.90;;;;;;4999148;28;20026;-78
2022/11/23 02:24:34;;;;;;;6.80;5.05;;;1.10;99.90;;;;;;4997308;28;20069;-78
2022/11/23 02:27:01;;;;;;;8.75;6.63;;;1.10;99.90;;;;;;4998952;28;20472;-77
2022/11/23 02:29:28;;;;;;;8.75;6.40;;;1.10;99.90;;;;;;4998944;28;20480;-79
2022/11/23 02:31:54;;;;;;;10.85;5.50;;;1.10;99.90;;;;;;4998919;28;20368;-79
2022/11/23 02:34:20;;;;;;;8.25;4.60;;;1.10;99.90;;;;;;4997452;28;20044;-78
2022/11/23 02:36:48;;;;;;;7.80;6.00;;;1.10;99.90;;;;;;4998744;28;20018;-79
2022/11/23 02:39:26;;;;;;;10.50;6.07;;;1.10;99.90;;;;;;4998888;28;20034;-79
2022/11/23 02:41:54;;;;;;;12.82;7.30;;;1.10;99.90;;;;;;4998768;28;20050;-79
2022/11/23 02:44:22;;;;;;;;;;;1.00;99.90;;;;;;4999171;28;20558;-80
2022/11/23 02:46:48;;;;;;;7.63;5.07;;;1.00;99.90;;;;;;4998665;28;19957;-79
2022/11/23 02:49:14;;;;;;;7.13;6.05;;;1.00;99.90;;;;;;4998780;28;20514;-80
2022/11/23 02:51:40;;;;;;;9.35;5.70;;;1.00;99.90;;;;;;4999097;28;20030;-80
2022/11/23 02:54:06;;;;;;;8.20;6.15;;;1.00;99.90;;;;;;4998701;28;20618;-79
2022/11/23 02:56:32;;;;;;;7.18;5.55;;;1.00;99.90;;;;;;4998554;28;20155;-78
2022/11/23 02:58:58;;;;;;;8.90;6.45;;;1.00;99.90;;;;;;5000250;28;20031;-79
2022/11/23 03:01:23;;;;;;;10.95;5.53;;;1.00;99.90;;;;;;4997816;28;20026;-78
2022/11/23 03:03:49;;;;;;;10.02;6.75;;;1.00;99.90;;;;;;4999443;28;20030;-79
2022/11/23 03:06:15;;;;;;;11.35;6.82;;;1.10;99.90;;;;;;4996009;28;20093;-78
2022/11/23 03:08:41;;;;;;;12.55;7.30;;;1.00;99.90;;;;;;4996599;28;20460;-78
2022/11/23 03:11:07;;;;;;;7.05;5.22;;;1.10;99.90;;;;;;4996195;28;20054;-78
2022/11/23 03:13:33;;;;;;;11.35;5.80;;;1.10;99.90;;;;;;4996003;28;20026;-79
2022/11/23 03:15:59;;;;;;;6.57;5.15;;;1.10;99.90;;;;;;4980442;28;20022;-79
2022/11/23 03:18:25;;;;;;;7.35;4.68;;;1.10;99.90;;;;;;4997264;28;20171;-78
2022/11/23 03:20:51;;;;;;;7.40;4.57;;;1.10;99.90;;;;;;4995695;28;20550;-78
2022/11/23 03:23:17;;;;;;;6.25;3.88;;;1.10;99.90;;;;;;4995418;28;20027;-78
2022/11/23 03:25:42;;;;;;;6.53;4.65;;;1.10;99.90;;;;;;4995408;28;20023;-79
2022/11/23 03:28:08;;;;;;;8.63;4.57;;;1.10;99.90;;;;;;4994992;28;20109;-78
2022/11/23 03:30:34;;;;;;;8.23;5.53;;;1.10;99.90;;;;;;4992317;28;20022;-79
2022/11/23 03:33:00;;;;;;;10.52;4.90;;;1.20;99.90;;;;;;4995405;28;20060;-78
2022/11/23 03:35:26;;;;;;;7.72;5.63;;;1.10;99.90;;;;;;4995069;28;20110;-79
2022/11/23 03:37:52;;;;;;;8.10;4.90;;;1.20;99.90;;;;;;4995130;28;20023;-78
2022/11/23 03:40:17;;;;;;;8.43;4.60;;;1.20;99.90;;;;;;4984618;28;20033;-78
2022/11/23 03:42:43;;;;;;;8.75;4.70;;;1.20;99.90;;;;;;4994596;28;20101;-79
2022/11/23 03:45:09;;;;;;;12.35;6.85;;;1.10;99.90;;;;;;4995081;28;20076;-77
2022/11/23 03:47:37;;;;;;;8.70;4.95;;;1.20;99.90;;;;;;4995167;28;20113;-77
2022/11/23 03:50:03;;;;;;;11.13;6.88;;;1.10;99.90;;;;;;4996463;28;20018;-78
2022/11/23 03:52:29;;;;;;;8.20;5.95;;;1.20;99.90;;;;;;5002475;28;20040;-78
2022/11/23 03:54:55;;;;;;;10.38;5.22;;;1.20;99.90;;;;;;4996342;28;20018;-77
2022/11/23 03:57:21;;;;;;;6.88;4.68;;;1.20;99.90;;;;;;4995119;28;20088;-77
2022/11/23 03:59:46;;;;;;;7.15;4.65;;;1.30;99.90;;;;;;4993544;28;20504;-78
2022/11/23 04:02:12;;;;;;;6.47;3.83;;;1.40;99.90;;;;;;4994712;28;20028;-78
2022/11/23 04:04:38;;;;;;;9.30;5.13;;;1.40;99.90;;;;;;4994545;28;20116;-79
2022/11/23 04:07:04;;;;;;;7.47;4.80;;;1.40;99.90;;;;;;4994235;28;20127;-80
2022/11/23 04:09:30;;;;;;;7.90;3.90;;;1.40;99.90;;;;;;4994362;28;20030;-80
2022/11/23 04:11:55;;;;;;;9.13;4.15;;;1.40;99.90;;;;;;4992850;28;20053;-80
2022/11/23 04:14:21;;;;;;;7.60;4.15;;;1.40;99.90;;;;;;4994196;28;20037;-79
2022/11/23 04:16:47;;;;;;;7.57;4.25;;;1.40;99.90;;;;;;4992713;28;20023;-80
2022/11/23 04:19:13;;;;;;;7.82;4.30;;;1.30;99.90;;;;;;4993933;28;20023;-79
2022/11/23 04:21:39;;;;;;;6.70;4.45;;;1.30;99.90;;;;;;4993962;28;20381;-79
2022/11/23 04:24:05;;;;;;;8.15;5.18;;;1.30;99.90;;;;;;4992513;28;20488;-77
2022/11/23 04:26:30;;;;;;;10.75;6.50;;;1.30;99.90;;;;;;4993825;28;20032;-80
2022/11/23 04:28:56;;;;;;;10.32;5.82;;;1.30;99.90;;;;;;4993863;28;20117;-76
2022/11/23 04:31:22;;;;;;;7.25;5.07;;;1.20;99.90;;;;;;4993907;28;20487;-78
2022/11/23 04:33:48;;;;;;;10.20;5.78;;;1.20;99.90;;;;;;4994189;28;20022;-80
2022/11/23 04:36:14;;;;;;;7.78;4.93;;;1.30;99.90;;;;;;4994671;28;20376;-79
2022/11/23 04:38:40;;;;;;;9.25;5.93;;;1.30;99.90;;;;;;4995311;28;20042;-80
2022/11/23 04:41:06;;;;;;;9.10;6.05;;;1.30;99.90;;;;;;4994230;28;20066;-78
2022/11/23 04:43:31;;;;;;;9.85;5.72;;;1.30;99.90;;;;;;4993440;28;20026;-80
2022/11/23 04:45:57;;;;;;;9.38;5.78;;;1.30;99.90;;;;;;4993683;28;20023;-79
2022/11/23 04:48:23;;;;;;;8.80;5.82;;;1.30;99.90;;;;;;4993276;28;20062;-78
2022/11/23 04:50:49;;;;;;;13.55;6.70;;;1.30;99.90;;;;;;4993860;28;20053;-80
2022/11/23 04:53:15;;;;;;;14.65;7.53;;;1.30;99.90;;;;;;4992380;28;20121;-79
2022/11/23 04:55:41;;;;;;;16.45;8.18;;;1.40;99.90;;;;;;4993308;28;20076;-80
2022/11/23 04:58:07;;;;;;;14.73;9.00;;;1.40;99.90;;;;;;4993574;28;20396;-80
2022/11/23 05:00:33;;;;;;;15.40;10.32;;;1.40;99.90;;;;;;4993388;28;20098;-79
2022/11/23 05:03:00;;;;;;;12.43;7.50;;;1.40;99.90;;;;;;4991938;28;20499;-77
2022/11/23 05:05:26;;;;;;;17.45;10.25;;;1.40;99.90;;;;;;4992702;28;20026;-79
2022/11/23 05:07:51;;;;;;;14.43;8.80;;;1.40;99.90;;;;;;4991982;28;20038;-80
2022/11/23 05:10:17;;;;;;;10.35;7.30;;;1.50;99.90;;;;;;4993037;28;20388;-78
2022/11/23 05:12:43;;;;;;;11.65;7.30;;;1.50;99.90;;;;;;4991769;28;20442;-80
2022/11/23 05:15:13;;;;;;;9.43;6.55;;;1.50;99.90;;;;;;4993305;28;20522;-79
2022/11/23 05:17:39;;;;;;;14.82;8.45;;;1.50;99.90;;;;;;4993634;28;20506;-80
2022/11/23 05:20:06;;;;;;;10.63;6.65;;;1.50;99.90;;;;;;5006221;28;20022;-79
2022/11/23 05:22:32;;;;;;;8.35;5.97;;;1.50;99.90;;;;;;5001643;28;20022;-77
2022/11/23 05:24:58;;;;;;;7.80;5.82;;;1.50;99.90;;;;;;4993331;28;20048;-77
2022/11/23 05:27:24;;;;;;;10.18;6.18;;;1.50;99.90;;;;;;4992448;28;20026;-77
2022/11/23 05:29:50;;;;;;;21.05;9.10;;;1.50;99.90;;;;;;4992003;28;20029;-78
2022/11/23 05:32:16;;;;;;;8.90;5.60;;;1.50;99.90;;;;;;4992155;28;20135;-79
2022/11/23 05:34:41;;;;;;;11.90;6.43;;;1.50;99.90;;;;;;4992526;28;20034;-79
2022/11/23 05:37:07;;;;;;;9.05;6.03;;;1.50;99.90;;;;;;4993109;28;20496;-79
2022/11/23 05:39:33;;;;;;;7.68;5.78;;;1.40;99.90;;;;;;4992969;28;20023;-78
2022/11/23 05:41:59;;;;;;;7.90;5.28;;;1.40;99.90;;;;;;4968437;28;20022;-79
2022/11/23 05:44:25;;;;;;;9.75;5.97;;;1.50;99.90;;;;;;4993358;28;20026;-81
2022/11/23 05:46:51;;;;;;;5.45;3.65;;;1.40;99.90;;;;;;4984236;28;20111;-78
2022/11/23 05:49:17;;;;;;;4.93;3.97;;;1.40;99.90;;;;;;4997845;28;20023;-78
2022/11/23 05:51:43;;;;;;;6.70;4.53;;;1.40;99.90;;;;;;4994182;28;20097;-80
2022/11/23 05:54:08;;;;;;;8.82;5.43;;;1.40;99.90;;;;;;4983280;28;20034;-80
2022/11/23 05:56:34;;;;;;;9.63;4.70;;;1.40;99.90;;;;;;4992962;28;20094;-79
2022/11/23 05:59:00;;;;;;;7.70;4.18;;;1.40;99.90;;;;;;4985428;28;20026;-80
2022/11/23 06:01:26;;;;;;;11.13;5.32;;;1.40;99.90;;;;;;4984488;28;20034;-79
2022/11/23 06:03:52;;;;;;;6.22;4.05;;;1.50;99.90;;;;;;4978396;28;20026;-79
2022/11/23 06:06:17;;;;;;;11.23;5.15;;;1.40;99.90;;;;;;4992400;28;20420;-79
2022/11/23 06:08:43;;;;;;;9.32;6.00;;;1.30;99.90;;;;;;4992778;28;20093;-78
2022/11/23 06:11:09;;;;;;;11.35;4.68;;;1.40;99.90;;;;;;4995586;28;20145;-79
2022/11/23 06:13:35;;;;;;;7.55;3.70;;;1.40;99.90;;;;;;4991423;28;20026;-80
2022/11/23 06:16:01;;;;;;;5.85;4.32;;;1.40;99.90;;;;;;4992710;28;20029;-79
2022/11/23 06:18:27;;;;;;;6.00;4.70;;;1.40;99.90;;;;;;4990877;28;20053;-78
2022/11/23 06:20:53;;;;;;;6.57;4.65;;;1.50;99.90;;;;;;4992221;28;20030;-79
2022/11/23 06:23:19;;;;;;;9.27;4.95;;;1.60;99.90;;;;;;4992380;28;20089;-79
2022/11/23 06:25:44;;;;;;;4.82;4.00;;;1.70;99.90;;;;;;4992582;28;20073;-80
2022/11/23 06:28:13;;;;;;;6.82;5.03;;;1.80;99.90;;;;;;4990755;28;20038;-80
2022/11/23 06:30:39;;;;;;;7.63;4.82;;;1.80;99.90;;;;;;4992386;28;20030;-80
2022/11/23 06:33:05;;;;;;;5.68;3.90;;;1.80;99.90;;;;;;4992169;28;20076;-80
2022/11/23 06:35:31;;;;;;;6.80;3.97;;;1.90;99.90;;;;;;4992166;28;20034;-78
2022/11/23 06:37:57;;;;;;;9.55;4.70;;;1.90;99.90;;;;;;4991969;28;20383;-81
2022/11/23 06:40:23;;;;;;;8.45;5.50;;;1.90;99.90;;;;;;4992945;28;20042;-79
2022/11/23 06:42:49;;;;;;;9.48;6.80;;;1.80;99.90;;;;;;4995747;28;20429;-79
2022/11/23 06:45:15;;;;;;;8.65;5.93;;;1.90;99.90;;;;;;4994584;28;20022;-81
2022/11/23 06:47:41;;;;;;;6.97;5.00;;;1.90;99.90;;;;;;4995736;28;20399;-80
2022/11/23 06:50:10;;;;;;;7.60;5.93;;;1.90;99.90;;;;;;4996161;28;20026;-81
2022/11/23 06:52:36;;;;;;;10.15;6.53;;;1.80;99.90;;;;;;4995881;28;20080;-81
2022/11/23 06:55:02;;;;;;;8.13;5.45;;;1.80;99.90;;;;;;4995899;28;20089;-80
2022/11/23 06:57:27;;;;;;;13.25;6.72;;;1.80;99.90;;;;;;4994618;28;20298;-81
2022/11/23 06:59:53;;;;;;;10.90;6.75;;;1.80;99.90;;;;;;4995416;28;20060;-80
2022/11/23 07:02:19;;;;;;;14.48;8.30;;;1.80;99.90;;;;;;4993892;28;20436;-81
2022/11/23 07:04:45;;;;;;;22.98;11.50;;;1.70;99.90;;;;;;4996179;28;20030;-80
2022/11/23 07:07:11;;;;;;;11.35;6.60;;;1.70;99.90;;;;;;4993970;28;20129;-80
2022/11/23 07:09:39;;;;;;;11.65;8.43;;;1.70;99.90;;;;;;4995664;28;20030;-81
2022/11/23 07:12:05;;;;;;;8.90;6.47;;;1.70;99.90;;;;;;4994701;28;20110;-79
2022/11/23 07:14:31;;;;;;;12.60;8.30;;;1.70;99.90;;;;;;4998258;28;20026;-81
2022/11/23 07:16:57;;;;;;;11.32;7.00;;;1.80;99.90;;;;;;4995411;28;20484;-81
2022/11/23 07:19:23;;;;;;;10.48;7.07;;;1.80;99.90;;;;;;4993832;28;20058;-80
2022/11/23 07:21:49;;;;;;;11.40;7.38;;;1.80;99.90;;;;;;4993863;28;20380;-82
2022/11/23 07:24:17;;;;;;;14.30;7.15;;;1.80;99.90;;;;;;4996236;28;20055;-81
2022/11/23 07:26:43;;;;;;;15.45;7.95;;;1.80;99.90;;;;;;4995902;28;20022;-79
2022/11/23 07:29:09;;;;;;;13.30;6.50;;;1.80;99.90;;;;;;4996604;28;20458;-78
2022/11/23 07:31:35;;;;;;;10.95;7.18;;;1.80;99.90;;;;;;4996562;28;20018;-81
2022/11/23 07:34:01;;;;;;;16.63;8.30;;;1.80;99.90;;;;;;4994390;28;20137;-81
2022/11/23 07:36:27;;;;;;;14.30;8.50;;;1.80;99.90;;;;;;4994359;28;20388;-81
2022/11/23 07:38:53;;;;;;;14.18;8.50;;;1.90;99.90;;;;;;4995136;28;20490;-80
2022/11/23 07:41:19;;;;;;;11.30;8.85;;;2.00;99.90;;;;;;4995163;28;20018;-81
2022/11/23 07:43:45;;;;;;;14.27;9.43;;;2.00;99.90;;;;;;4996174;28;20019;-81
2022/11/23 07:46:11;;;;;;;12.68;9.43;;;2.00;99.90;;;;;;4997045;28;20030;-82
2022/11/23 07:48:37;;;;;;;13.60;10.20;;;2.10;99.90;;;;;;4996172;28;20040;-79
2022/11/23 07:51:03;;;;;;;13.18;9.77;;;2.10;99.90;;;;;;5002289;28;20065;-79
2022/11/23 07:53:29;;;;;;;10.32;6.82;;;2.10;99.90;;;;;;4997801;28;20034;-79
2022/11/23 07:55:57;;;;;;;11.82;8.07;;;2.10;99.90;;;;;;4995052;28;20028;-80
2022/11/23 07:58:24;;;;;;;11.23;8.13;;;2.00;99.90;;;;;;4994837;28;20022;-80
2022/11/23 08:00:50;;;;;;;17.17;8.43;;;2.10;99.90;;;;;;4993262;28;20026;-79
2022/11/23 08:03:15;;;;;;;9.80;6.95;;;2.10;99.90;;;;;;4993274;28;20033;-79
2022/11/23 08:05:42;;;;;;;13.02;9.00;;;2.10;99.90;;;;;;4994416;28;20022;-79
2022/11/23 08:08:07;;;;;;;8.88;6.50;;;2.00;99.90;;;;;;4993991;28;20034;-79
2022/11/23 08:10:33;;;;;;;10.00;7.82;;;2.10;99.90;;;;;;4994194;28;20079;-80
2022/11/23 08:13:02;;;;;;;9.15;7.40;;;2.10;99.90;;;;;;4994296;28;20045;-80
2022/11/23 08:15:27;;;;;;;9.40;6.43;;;2.10;99.90;;;;;;4983828;28;20200;-80
2022/11/23 08:18:00;;;;;;;8.60;5.85;;;2.10;99.90;;;;;;4988087;28;20369;-81
2022/11/23 08:20:28;;;;;;;12.32;7.10;;;2.20;99.90;;;;;;4994033;28;20030;-79
2022/11/23 08:22:56;;;;;;;12.93;6.30;;;2.20;99.90;;;;;;4993735;28;20042;-81
2022/11/23 08:25:27;;;;;;;9.20;5.75;;;2.10;99.90;;;;;;4994837;28;20047;-82
2022/11/23 08:28:01;;;;;;;8.43;6.63;;;2.10;99.90;;;;;;4994060;28;20045;-81
2022/11/23 08:30:34;;;;;;;8.15;5.78;;;2.20;99.90;;;;;;4994204;28;20022;-83
2022/11/23 08:33:04;;;;;;;6.80;5.25;;;2.20;99.90;;;;;;4994033;28;20065;-82
2022/11/23 08:35:36;;;;;;;7.80;5.22;;;2.20;99.90;;;;;;4993678;28;20023;-81
2022/11/23 08:38:03;;;;;;;11.80;5.50;;;2.20;99.90;;;;;;4993060;28;20030;-82
2022/11/23 08:40:29;;;;;;;10.05;5.40;;;2.10;99.90;;;;;;4994733;28;20018;-82
2022/11/23 08:42:55;;;;;;;10.25;6.80;;;2.10;99.90;;;;;;4994545;28;20034;-81
2022/11/23 08:45:21;;;;;;;12.27;5.78;;;2.10;99.90;;;;;;4993628;28;20033;-81
2022/11/23 08:47:47;;;;;;;7.53;6.00;;;2.10;99.90;;;;;;4984068;28;20027;-81
2022/11/23 08:50:13;;;;;;;5.93;4.30;;;2.20;99.90;;;;;;4990708;28;20073;-80
2022/11/23 08:52:39;;;;;;;5.68;4.60;;;2.10;99.90;;;;;;4993285;28;20022;-82
2022/11/23 08:55:05;;;;;;;8.35;6.03;;;2.10;99.90;;;;;;4993751;28;20019;-80
2022/11/23 08:57:31;;;;;;;8.75;4.40;;;2.20;99.90;;;;;;4993906;28;20448;-82
2022/11/23 08:59:57;;;;;;;6.32;4.75;;;2.30;99.90;;;;;;4994722;28;20061;-81
2022/11/23 09:02:23;;;;;;;7.28;5.20;;;2.40;99.90;;;;;;4999754;28;20030;-82
2022/11/23 09:04:49;;;;;;;10.02;6.68;;;2.50;99.90;;;;;;4993095;28;20026;-82
2022/11/23 09:07:15;;;;;;;11.85;6.55;;;2.40;99.90;;;;;;4993390;28;20064;-82
2022/11/23 09:09:41;;;;;;;7.10;4.32;;;2.40;99.90;;;;;;4993920;28;20663;-82
2022/11/23 09:12:07;;;;;;;10.52;6.30;;;2.40;99.90;;;;;;4993520;28;20030;-81
2022/11/23 09:14:33;;;;;;;4.75;3.65;;;2.30;99.90;;;;;;4993595;28;20116;-82
2022/11/23 09:17:02;;;;;;;7.50;5.07;;;2.20;99.90;;;;;;4995687;28;20062;-80
2022/11/23 09:19:28;;;;;;;3.92;3.53;;;2.20;99.90;;;;;;4996691;28;20454;-81
2022/11/23 09:21:54;;;;;;;8.15;4.47;;;2.20;99.90;;;;;;4993005;28;20046;-77
2022/11/23 09:24:21;;;;;;;3.50;2.65;;;2.20;99.90;;;;;;4992768;28;20085;-80
2022/11/23 09:26:47;;;;;;;10.57;4.73;;;2.20;99.90;;;;;;4993279;28;20566;-81
2022/11/23 09:29:13;;;;;;;4.95;3.83;;;2.10;99.90;;;;;;4991494;28;20124;-80
2022/11/23 09:31:39;;;;;;;7.20;4.68;;;2.10;99.90;;;;;;4992372;28;20030;-78
2022/11/23 09:34:04;;;;;;;5.93;3.85;;;2.20;99.90;;;;;;4994625;28;20085;-80
2022/11/23 09:36:30;;;;;;;6.43;4.32;;;2.20;99.90;;;;;;4995416;28;20027;-80
2022/11/23 09:38:56;;;;;;;7.10;4.60;;;2.10;99.90;;;;;;4993499;28;20138;-81
2022/11/23 09:41:41;;;;;;;4.55;3.17;;;2.10;99.90;;;;;;4979660;28;20113;-80
2022/11/23 09:44:34;;;;;;;10.07;4.97;;;2.10;99.90;;;;;;4992557;28;20041;-79
2022/11/23 09:47:06;;;;;;;5.38;3.40;;;2.10;99.90;;;;;;4990223;28;20026;-81
2022/11/23 09:49:48;;;;;;;6.80;4.03;;;2.20;99.90;;;;;;4992524;28;20038;-80
2022/11/23 09:52:19;;;;;;;4.63;3.45;;;2.10;99.90;;;;;;4992965;28;20019;-78
2022/11/23 09:54:48;;;;;;;8.20;3.88;;;2.10;99.90;;;;;;4994728;28;20018;-80
2022/11/23 09:57:20;;;;;;;4.63;3.80;;;2.00;99.90;;;;;;4992444;28;20026;-80
2022/11/23 10:00:00;;;;;;;4.50;3.67;;;2.00;99.90;;;;;;4992187;28;20105;-80
2022/11/23 10:02:30;;;;;;;5.68;4.10;;;1.90;99.90;;;;;;4992769;28;20022;-80
2022/11/23 10:04:59;;;;;;;6.03;4.38;;;1.90;99.90;;;;;;4987792;28;20026;-80
2022/11/23 10:07:37;;;;;;;5.88;4.93;;;2.00;99.90;;;;;;4992253;28;20033;-79
2022/11/23 10:10:21;;;;;;;7.60;4.18;;;2.00;99.90;;;;;;4985682;28;20117;-80
2022/11/23 10:13:12;;;;;;;10.95;5.22;;;2.00;99.90;;;;;;4992306;28;20077;-82
2022/11/23 10:15:56;;;;;;;10.43;4.88;;;2.00;99.90;;;;;;4993536;28;20350;-82
2022/11/23 10:18:49;;;;;;;8.43;4.68;;;2.00;99.90;;;;;;4997275;28;20431;-81
2022/11/23 10:21:33;;;;;;;6.88;5.43;;;2.00;99.90;;;;;;4996651;28;20076;-85
2022/11/23 10:24:01;;;;;;;7.10;5.50;;;2.00;99.90;;;;;;4996316;28;20061;-82
2022/11/23 10:26:35;;;;;;;5.70;4.75;;;2.10;99.90;;;;;;4998244;28;20271;-83
2022/11/23 10:29:23;;;;;;;5.15;4.10;;;2.10;99.90;;;;;;4995970;28;20058;-83
2022/11/23 10:31:50;;;;;;;7.57;4.95;;;2.10;99.90;;;;;;4995870;28;20539;-81
2022/11/23 10:34:55;;;;;;;8.68;5.80;;;1.90;99.90;;;;;;4996774;28;20030;-83
2022/11/23 10:37:25;;;;;;;6.45;4.28;;;1.90;99.90;;;;;;4957914;28;20061;-84
2022/11/23 10:39:51;;;;;;;8.85;5.15;;;1.90;99.90;;;;;;4994855;28;20042;-83
2022/11/23 10:42:24;;;;;;;6.53;4.82;;;1.90;99.90;;;;;;4997049;28;20045;-83
2022/11/23 10:44:51;;;;;;;5.80;4.43;;;2.00;99.90;;;;;;4986877;28;20073;-84
2022/11/23 10:47:47;;;;;;;5.38;3.83;;;1.90;99.90;;;;;;5000480;28;20026;-83
2022/11/23 10:50:28;;;;;;;4.60;4.00;;;1.90;99.90;;;;;;5009428;28;20090;-84
2022/11/23 10:53:21;;;;;;;6.00;4.10;;;1.80;99.90;;;;;;4998915;28;20022;-81
2022/11/23 10:55:56;;;;;;;6.65;4.03;;;1.80;99.90;;;;;;4995499;28;20030;-82
2022/11/23 10:58:34;;;;;;;6.18;3.88;;;1.80;99.90;;;;;;4995348;28;20026;-80
2022/11/23 11:01:16;;;;;;;5.88;4.05;;;1.80;99.90;;;;;;4994528;28;20026;-82
2022/11/23 11:03:42;;;;;;;5.53;4.38;;;1.80;99.90;;;;;;4995556;28;20048;-82
2022/11/23 11:06:08;;;;;;;5.65;4.82;;;1.80;99.90;;;;;;4995668;28;20030;-83
2022/11/23 11:08:52;;;;;;;7.30;4.27;;;1.90;99.90;;;;;;4992437;28;20045;-83
2022/11/23 11:11:29;;;;;;;7.53;5.53;;;1.90;99.90;;;;;;4995446;28;20030;-81
2022/11/23 11:14:02;;;;;;;5.97;4.45;;;1.90;99.90;;;;;;4992132;28;20114;-83
2022/11/23 11:16:34;;;;;;;9.45;5.72;;;1.80;99.90;;;;;;4997117;28;20083;-80
2022/11/23 11:19:30;;;;;;;9.30;5.18;;;1.90;99.90;;;;;;4996022;28;20050;-81
2022/11/23 11:21:57;;;;;;;5.38;3.25;;;1.90;99.90;;;;;;4983513;28;20023;-82
2022/11/23 11:24:38;;;;;;;6.35;4.75;;;1.80;99.90;;;;;;4995239;28;20129;-83
2022/11/23 11:27:12;;;;;;;8.25;5.70;;;1.80;99.90;;;;;;4993429;28;20411;-82
2022/11/23 11:29:47;;;;;;;7.05;5.25;;;1.80;99.90;;;;;;4994766;28;20042;-83
2022/11/23 11:32:43;;;;;;;7.90;5.63;;;1.90;99.90;;;;;;4985320;28;20018;-82
2022/11/23 11:35:30;;;;;;;5.57;4.15;;;1.80;99.90;;;;;;4995763;28;20423;-83
2022/11/23 11:38:03;;;;;;;7.57;5.53;;;1.90;99.90;;;;;;4993949;28;20061;-82
2022/11/23 11:40:50;;;;;;;6.50;4.72;;;1.70;99.90;;;;;;4995239;28;20049;-82
2022/11/23 11:43:36;;;;;;;11.48;5.40;;;1.80;99.90;;;;;;4998462;28;20042;-82
2022/11/23 11:46:18;;;;;;;7.30;4.57;;;1.80;99.90;;;;;;4987553;28;20369;-84
2022/11/23 11:48:51;;;;;;;8.10;6.15;;;1.70;99.90;;;;;;4995627;28;20319;-82
2022/11/23 11:51:40;;;;;;;8.68;6.18;;;1.70;99.90;;;;;;4998526;28;20080;-80
2022/11/23 11:54:30;;;;;;;8.40;6.28;;;1.70;99.90;;;;;;4997272;28;20753;-80
2022/11/23 11:57:19;;;;;;;6.97;5.07;;;1.70;99.90;;;;;;4994538;28;20114;-82
2022/11/23 11:59:49;;;;;;;8.98;6.03;;;1.60;99.90;;;;;;4985810;28;20399;-82
2022/11/23 12:02:35;;;;;;;10.27;8.13;;;1.60;99.90;;;;;;4994191;28;20022;-84
2022/11/23 12:05:31;;;;;;;13.02;9.23;;;1.60;99.90;;;;;;4989510;28;20015;-83
2022/11/23 12:08:07;;;;;;;7.72;5.60;;;1.60;99.90;;;;;;4991817;28;20404;-79
2022/11/23 12:10:53;;;;;;;7.50;5.25;;;1.60;99.90;;;;;;4994801;28;20054;-82
2022/11/23 12:13:23;;;;;;;9.32;6.10;;;1.50;99.90;;;;;;4994248;28;20014;-81
2022/11/23 12:16:00;;;;;;;9.18;6.18;;;1.60;99.90;;;;;;4992697;28;20030;-80
2022/11/23 12:18:56;;;;;;;8.07;5.97;;;1.60;99.90;;;;;;4994539;28;20057;-81
2022/11/23 12:21:34;;;;;;;8.43;6.90;;;1.60;99.90;;;;;;4994683;28;20058;-80
2022/11/23 12:24:09;;;;;;;10.98;6.82;;;1.60;99.90;;;;;;4994050;28;20057;-81
2022/11/23 12:27:04;;;;;;;10.68;6.90;;;1.60;99.90;;;;;;4993796;28;20029;-81
2022/11/23 12:29:59;;;;;;;8.65;6.30;;;1.60;99.90;;;;;;4976299;28;20042;-80
2022/11/23 12:32:53;;;;;;;12.68;8.43;;;1.70;99.90;;;;;;4993790;28;20057;-78
2022/11/23 12:35:28;;;;;;;10.48;6.75;;;1.60;99.90;;;;;;4993207;28;20045;-81
2022/11/23 12:38:05;;;;;;;7.93;6.47;;;1.60;99.90;;;;;;4997520;28;20027;-81
2022/11/23 12:40:52;;;;;;;;;;;1.60;99.90;;;;;;4994013;28;20333;-82
2022/11/23 12:43:43;;;;;;;12.63;8.75;;;1.60;99.90;;;;;;4993176;28;19923;-81
2022/11/23 12:46:25;;;;;;;9.90;6.13;;;1.50;99.90;;;;;;4993420;28;20034;-81
2022/11/23 12:49:28;;;;;;;6.90;5.82;;;1.50;99.90;;;;;;4993710;28;20026;-83
2022/11/23 12:52:03;;;;;;;11.07;7.07;;;1.50;99.90;;;;;;4993695;28;20022;-82
2022/11/23 12:54:57;;;;;;;8.75;6.40;;;1.40;99.90;;;;;;4994038;28;20022;-83
2022/11/23 12:57:29;;;;;;;9.63;8.63;;;1.40;99.90;;;;;;4994032;28;20104;-81
2022/11/23 13:00:06;;;;;;;12.68;8.80;;;1.40;99.90;;;;;;4993297;28;20022;-82
2022/11/23 13:02:41;;;;;;;;;;;1.40;99.90;;;;;;4987081;28;20411;-83
2022/11/23 13:05:33;;;;;;;9.70;8.45;;;1.40;99.90;;;;;;4991583;28;19913;-81
2022/11/23 13:08:36;;;;;;;12.65;9.55;;;1.40;99.90;;;;;;4993147;28;20030;-82